sensor_id;sensor_type;location;lat;lon;timestamp;pressure;altitude;pressure_sealevel;temperature;humidity
77299;BME280;66361;52.034;20.656;2023-08-31T05:03:34;99046.31;;;15.52;100.00
77299;BME280;66361;52.034;20.656;2023-08-31T05:07:38;99045.66;;;15.50;100.00
77299;BME280;66361;52.034;20.656;2023-08-31T05:11:41;99048.66;;;15.55;100.00
77299;BME280;66361;52.034;20.656;2023-08-31T05:15:45;99045.00;;;15.56;100.00
77299;BME280;66361;52.034;20.656;2023-08-31T05:19:50;99052.84;;;15.58;100.00
77299;BME280;66361;52.034;20.656;2023-08-31T05:23:53;99072.44;;;15.57;100.00
77299;BME280;66361;52.034;20.656;2023-08-31T05:27:56;99071.16;;;15.61;100.00
77299;BME280;66361;52.034;20.656;2023-08-31T05:31:59;99073.72;;;15.70;100.00
77299;BME280;66361;52.034;20.656;2023-08-31T05:36:06;99083.06;;;15.74;100.00
77299;BME280;66361;52.034;20.656;2023-08-31T05:40:09;99085.00;;;15.90;100.00
77299;BME280;66361;52.034;20.656;2023-08-31T05:44:13;99089.03;;;15.94;100.00
77299;BME280;66361;52.034;20.656;2023-08-31T05:48:16;99090.38;;;15.98;100.00
77299;BME280;66361;52.034;20.656;2023-08-31T05:52:22;99102.72;;;16.07;100.00
77299;BME280;66361;52.034;20.656;2023-08-31T05:56:24;99094.41;;;16.02;100.00
77299;BME280;66361;52.034;20.656;2023-08-31T06:00:28;99107.41;;;16.05;100.00
77299;BME280;66361;52.034;20.656;2023-08-31T06:04:30;99112.72;;;16.31;100.00
77299;BME280;66361;52.034;20.656;2023-08-31T06:08:35;99096.63;;;16.66;100.00
77299;BME280;66361;52.034;20.656;2023-08-31T06:12:39;99099.50;;;16.81;100.00
77299;BME280;66361;52.034;20.656;2023-08-31T06:16:42;99108.53;;;16.96;100.00
77299;BME280;66361;52.034;20.656;2023-08-31T06:20:46;99112.66;;;17.49;100.00
77299;BME280;66361;52.034;20.656;2023-08-31T06:24:51;99111.66;;;18.22;94.88
77299;BME280;66361;52.034;20.656;2023-08-31T06:28:55;99111.91;;;19.29;89.29
77299;BME280;66361;52.034;20.656;2023-08-31T06:32:58;99113.81;;;19.52;84.95
77299;BME280;66361;52.034;20.656;2023-08-31T06:37:01;99101.56;;;19.95;81.93
77299;BME280;66361;52.034;20.656;2023-08-31T06:41:06;99109.69;;;20.53;78.71
77299;BME280;66361;52.034;20.656;2023-08-31T06:45:11;99106.31;;;21.10;76.76
77299;BME280;66361;52.034;20.656;2023-08-31T06:49:14;99108.91;;;21.03;77.48
77299;BME280;66361;52.034;20.656;2023-08-31T06:53:16;99115.22;;;20.96;74.01
77299;BME280;66361;52.034;20.656;2023-08-31T06:57:21;99118.94;;;20.80;74.70
77299;BME280;66361;52.034;20.656;2023-08-31T07:01:24;99130.94;;;21.28;69.67
77299;BME280;66361;52.034;20.656;2023-08-31T07:05:33;99132.69;;;21.57;68.69
77299;BME280;66361;52.034;20.656;2023-08-31T07:09:38;99132.84;;;21.19;71.34
77299;BME280;66361;52.034;20.656;2023-08-31T07:13:43;99139.19;;;21.48;69.79
77299;BME280;66361;52.034;20.656;2023-08-31T07:17:49;99129.41;;;21.25;71.85
77299;BME280;66361;52.034;20.656;2023-08-31T07:21:52;99133.84;;;21.69;69.40
77299;BME280;66361;52.034;20.656;2023-08-31T07:25:57;99130.38;;;21.54;71.78
77299;BME280;66361;52.034;20.656;2023-08-31T07:30:04;99147.34;;;21.40;68.77
77299;BME280;66361;52.034;20.656;2023-08-31T07:34:08;99146.78;;;21.44;64.13
77299;BME280;66361;52.034;20.656;2023-08-31T07:38:12;99146.78;;;20.79;68.04
77299;BME280;66361;52.034;20.656;2023-08-31T07:42:15;99156.06;;;21.63;65.18
77299;BME280;66361;52.034;20.656;2023-08-31T07:46:20;99161.50;;;22.33;64.10
77299;BME280;66361;52.034;20.656;2023-08-31T07:50:24;99153.31;;;23.10;60.24
77299;BME280;66361;52.034;20.656;2023-08-31T07:54:27;99162.50;;;23.35;58.42
77299;BME280;66361;52.034;20.656;2023-08-31T07:58:32;99167.50;;;24.45;57.01
77299;BME280;66361;52.034;20.656;2023-08-31T08:02:36;99159.69;;;25.59;56.27
77299;BME280;66361;52.034;20.656;2023-08-31T08:06:39;99168.09;;;24.14;55.24
77299;BME280;66361;52.034;20.656;2023-08-31T08:10:42;99161.81;;;23.13;59.53
77299;BME280;66361;52.034;20.656;2023-08-31T08:14:45;99162.22;;;23.17;61.55
77299;BME280;66361;52.034;20.656;2023-08-31T08:18:49;99165.19;;;23.35;62.93
77299;BME280;66361;52.034;20.656;2023-08-31T08:22:54;99169.06;;;23.20;63.21
77299;BME280;66361;52.034;20.656;2023-08-31T08:26:59;99174.38;;;23.47;58.61
77299;BME280;66361;52.034;20.656;2023-08-31T08:31:03;99180.47;;;23.69;56.13
77299;BME280;66361;52.034;20.656;2023-08-31T08:35:07;99184.22;;;23.81;57.88
77299;BME280;66361;52.034;20.656;2023-08-31T08:39:11;99189.75;;;23.67;59.98
77299;BME280;66361;52.034;20.656;2023-08-31T08:43:14;99190.41;;;23.69;61.50
77299;BME280;66361;52.034;20.656;2023-08-31T08:47:18;99192.72;;;23.78;59.39
77299;BME280;66361;52.034;20.656;2023-08-31T08:51:23;99194.22;;;23.94;56.66
77299;BME280;66361;52.034;20.656;2023-08-31T08:55:27;99198.16;;;24.37;56.42
77299;BME280;66361;52.034;20.656;2023-08-31T08:59:31;99197.06;;;27.71;51.02
77299;BME280;66361;52.034;20.656;2023-08-31T09:03:35;99198.16;;;28.88;45.90
77299;BME280;66361;52.034;20.656;2023-08-31T09:08:00;99203.59;;;28.12;45.86
77299;BME280;66361;52.034;20.656;2023-08-31T09:12:07;99200.53;;;27.60;47.16
77299;BME280;66361;52.034;20.656;2023-08-31T09:16:23;99209.38;;;27.37;47.82
77299;BME280;66361;52.034;20.656;2023-08-31T09:20:27;99205.13;;;29.70;43.15
77299;BME280;66361;52.034;20.656;2023-08-31T09:24:40;99209.69;;;30.26;41.36
77299;BME280;66361;52.034;20.656;2023-08-31T09:28:44;99208.34;;;27.86;47.26
77299;BME280;66361;52.034;20.656;2023-08-31T09:32:52;99216.56;;;27.07;48.44
77299;BME280;66361;52.034;20.656;2023-08-31T09:37:04;99211.00;;;25.65;50.73
77299;BME280;66361;52.034;20.656;2023-08-31T09:41:09;99218.44;;;25.12;52.75
77299;BME280;66361;52.034;20.656;2023-08-31T09:45:12;99214.66;;;25.84;51.88
77299;BME280;66361;52.034;20.656;2023-08-31T09:49:17;99216.69;;;24.53;54.74
77299;BME280;66361;52.034;20.656;2023-08-31T09:53:21;99230.94;;;24.01;59.64
77299;BME280;66361;52.034;20.656;2023-08-31T09:57:32;99233.03;;;24.39;58.21
77299;BME280;66361;52.034;20.656;2023-08-31T10:01:48;99233.84;;;24.13;57.76
77299;BME280;66361;52.034;20.656;2023-08-31T10:05:52;99226.09;;;23.84;53.30
77299;BME280;66361;52.034;20.656;2023-08-31T10:09:55;99237.16;;;23.54;59.37
77299;BME280;66361;52.034;20.656;2023-08-31T10:14:02;99234.56;;;23.68;58.17
77299;BME280;66361;52.034;20.656;2023-08-31T10:18:06;99232.78;;;24.01;57.89
77299;BME280;66361;52.034;20.656;2023-08-31T10:22:09;99240.31;;;24.84;57.86
77299;BME280;66361;52.034;20.656;2023-08-31T10:26:13;99238.44;;;24.72;55.18
77299;BME280;66361;52.034;20.656;2023-08-31T10:30:26;99233.63;;;24.21;56.32
77299;BME280;66361;52.034;20.656;2023-08-31T10:34:36;99237.16;;;24.02;58.11
77299;BME280;66361;52.034;20.656;2023-08-31T10:38:41;99237.38;;;24.20;54.34
77299;BME280;66361;52.034;20.656;2023-08-31T10:42:45;99235.44;;;23.88;59.10
77299;BME280;66361;52.034;20.656;2023-08-31T10:46:51;99235.56;;;24.60;55.75
77299;BME280;66361;52.034;20.656;2023-08-31T10:50:59;99237.63;;;24.71;54.38
77299;BME280;66361;52.034;20.656;2023-08-31T10:55:04;99240.50;;;24.30;58.03
77299;BME280;66361;52.034;20.656;2023-08-31T10:59:08;99228.28;;;24.67;51.68
77299;BME280;66361;52.034;20.656;2023-08-31T11:03:12;99240.72;;;24.88;54.18
77299;BME280;66361;52.034;20.656;2023-08-31T11:07:17;99229.69;;;24.96;52.54
77299;BME280;66361;52.034;20.656;2023-08-31T11:11:22;99233.38;;;23.90;55.93
77299;BME280;66361;52.034;20.656;2023-08-31T11:15:27;99240.22;;;23.99;52.46
77299;BME280;66361;52.034;20.656;2023-08-31T11:19:33;99246.13;;;24.42;54.80
77299;BME280;66361;52.034;20.656;2023-08-31T11:23:36;99236.19;;;24.42;53.58
77299;BME280;66361;52.034;20.656;2023-08-31T11:27:40;99243.25;;;24.50;57.38
77299;BME280;66361;52.034;20.656;2023-08-31T11:31:43;99238.84;;;24.82;53.59
77299;BME280;66361;52.034;20.656;2023-08-31T11:35:48;99240.72;;;24.55;55.33
77299;BME280;66361;52.034;20.656;2023-08-31T11:39:52;99237.38;;;24.20;56.94
77299;BME280;66361;52.034;20.656;2023-08-31T11:43:55;99233.50;;;23.69;57.93
77299;BME280;66361;52.034;20.656;2023-08-31T11:48:02;99226.19;;;23.56;56.50
77299;BME280;66361;52.034;20.656;2023-08-31T11:52:08;99230.88;;;23.88;57.21
77299;BME280;66361;52.034;20.656;2023-08-31T11:56:12;99232.03;;;23.66;58.17
77299;BME280;66361;52.034;20.656;2023-08-31T12:00:16;99225.25;;;23.83;53.87
77299;BME280;66361;52.034;20.656;2023-08-31T12:04:21;99219.31;;;23.06;58.59
77299;BME280;66361;52.034;20.656;2023-08-31T12:08:27;99220.19;;;23.13;58.25
77299;BME280;66361;52.034;20.656;2023-08-31T12:12:32;99214.06;;;23.32;62.28
77299;BME280;66361;52.034;20.656;2023-08-31T12:16:36;99213.09;;;24.00;55.80
77299;BME280;66361;52.034;20.656;2023-08-31T12:20:44;99211.84;;;24.03;57.27
77299;BME280;66361;52.034;20.656;2023-08-31T12:24:48;99205.59;;;23.89;56.80
77299;BME280;66361;52.034;20.656;2023-08-31T12:28:52;99202.56;;;24.45;53.96
77299;BME280;66361;52.034;20.656;2023-08-31T12:32:56;99204.16;;;24.00;56.88
77299;BME280;66361;52.034;20.656;2023-08-31T12:37:01;99192.97;;;24.03;55.79
77299;BME280;66361;52.034;20.656;2023-08-31T12:41:08;99201.50;;;24.20;57.21
77299;BME280;66361;52.034;20.656;2023-08-31T12:45:12;99197.69;;;23.88;52.95
77299;BME280;66361;52.034;20.656;2023-08-31T12:49:16;99206.00;;;23.32;56.04
77299;BME280;66361;52.034;20.656;2023-08-31T12:53:21;99199.91;;;23.10;61.65
77299;BME280;66361;52.034;20.656;2023-08-31T12:57:26;99196.94;;;23.46;55.46
77299;BME280;66361;52.034;20.656;2023-08-31T13:01:30;99188.06;;;23.52;58.19
77299;BME280;66361;52.034;20.656;2023-08-31T13:05:38;99186.22;;;23.53;57.90
77299;BME280;66361;52.034;20.656;2023-08-31T13:09:43;99190.13;;;23.50;59.71
77299;BME280;66361;52.034;20.656;2023-08-31T13:13:51;99197.34;;;23.43;58.33
77299;BME280;66361;52.034;20.656;2023-08-31T13:17:55;99190.59;;;23.20;59.35
77299;BME280;66361;52.034;20.656;2023-08-31T13:21:58;99200.66;;;22.70;60.12
77299;BME280;66361;52.034;20.656;2023-08-31T13:26:02;99215.56;;;22.73;59.35
77299;BME280;66361;52.034;20.656;2023-08-31T13:30:08;99239.00;;;22.30;58.14
77299;BME280;66361;52.034;20.656;2023-08-31T13:34:11;99243.94;;;21.69;58.33
77299;BME280;66361;52.034;20.656;2023-08-31T13:38:17;99263.88;;;21.01;59.88
77299;BME280;66361;52.034;20.656;2023-08-31T13:42:21;99257.84;;;20.02;60.10
77299;BME280;66361;52.034;20.656;2023-08-31T13:46:28;99264.97;;;19.87;62.55
77299;BME280;66361;52.034;20.656;2023-08-31T13:50:33;99264.66;;;19.51;64.52
77299;BME280;66361;52.034;20.656;2023-08-31T13:54:39;99273.81;;;19.25;66.46
77299;BME280;66361;52.034;20.656;2023-08-31T13:58:42;99284.06;;;18.90;66.51
77299;BME280;66361;52.034;20.656;2023-08-31T14:02:48;99324.84;;;18.43;68.00
77299;BME280;66361;52.034;20.656;2023-08-31T14:06:52;99340.50;;;18.22;70.33
77299;BME280;66361;52.034;20.656;2023-08-31T14:10:56;99340.09;;;17.51;81.52
77299;BME280;66361;52.034;20.656;2023-08-31T14:14:59;99333.31;;;17.05;87.46
77299;BME280;66361;52.034;20.656;2023-08-31T14:19:06;99334.66;;;16.57;94.46
77299;BME280;66361;52.034;20.656;2023-08-31T14:23:10;99333.28;;;16.35;97.56
77299;BME280;66361;52.034;20.656;2023-08-31T14:27:17;99333.59;;;16.32;99.23
77299;BME280;66361;52.034;20.656;2023-08-31T14:31:22;99327.03;;;16.27;100.00
77299;BME280;66361;52.034;20.656;2023-08-31T14:35:27;99327.56;;;16.30;100.00
77299;BME280;66361;52.034;20.656;2023-08-31T14:39:30;99327.03;;;16.44;100.00
77299;BME280;66361;52.034;20.656;2023-08-31T14:43:33;99330.53;;;16.63;100.00
77299;BME280;66361;52.034;20.656;2023-08-31T14:47:36;99332.28;;;16.98;100.00
77299;BME280;66361;52.034;20.656;2023-08-31T14:51:41;99326.41;;;17.54;100.00
77299;BME280;66361;52.034;20.656;2023-08-31T14:55:48;99327.72;;;17.75;100.00
77299;BME280;66361;52.034;20.656;2023-08-31T14:59:51;99322.56;;;17.82;100.00
77299;BME280;66361;52.034;20.656;2023-08-31T15:03:55;99332.75;;;17.86;99.80
77299;BME280;66361;52.034;20.656;2023-08-31T15:08:01;99338.75;;;17.88;100.00
77299;BME280;66361;52.034;20.656;2023-08-31T15:12:04;99338.56;;;17.74;100.00
77299;BME280;66361;52.034;20.656;2023-08-31T15:16:07;99330.41;;;17.91;100.00
77299;BME280;66361;52.034;20.656;2023-08-31T15:20:11;99339.28;;;17.92;100.00
77299;BME280;66361;52.034;20.656;2023-08-31T15:24:15;99338.47;;;18.00;100.00
77299;BME280;66361;52.034;20.656;2023-08-31T15:28:18;99336.16;;;18.13;100.00
77299;BME280;66361;52.034;20.656;2023-08-31T15:32:22;99340.53;;;18.38;100.00
77299;BME280;66361;52.034;20.656;2023-08-31T15:36:26;99340.56;;;18.54;99.48
77299;BME280;66361;52.034;20.656;2023-08-31T15:40:31;99346.06;;;18.53;99.84
77299;BME280;66361;52.034;20.656;2023-08-31T15:44:39;99355.41;;;18.40;98.47
77299;BME280;66361;52.034;20.656;2023-08-31T15:48:43;99358.22;;;18.47;100.00
77299;BME280;66361;52.034;20.656;2023-08-31T15:52:47;99355.06;;;18.35;96.97
77299;BME280;66361;52.034;20.656;2023-08-31T15:56:52;99365.88;;;18.18;99.56
77299;BME280;66361;52.034;20.656;2023-08-31T16:00:55;99367.91;;;18.40;96.30
77299;BME280;66361;52.034;20.656;2023-08-31T16:05:06;99365.72;;;18.19;95.20
77299;BME280;66361;52.034;20.656;2023-08-31T16:09:10;99367.19;;;18.06;95.33
77299;BME280;66361;52.034;20.656;2023-08-31T16:13:15;99377.59;;;17.75;95.79
77299;BME280;66361;52.034;20.656;2023-08-31T16:17:17;99383.41;;;17.70;96.22
77299;BME280;66361;52.034;20.656;2023-08-31T16:21:20;99386.69;;;17.56;100.00
77299;BME280;66361;52.034;20.656;2023-08-31T16:25:23;99395.41;;;17.40;100.00
77299;BME280;66361;52.034;20.656;2023-08-31T16:29:28;99402.97;;;17.27;100.00
77299;BME280;66361;52.034;20.656;2023-08-31T16:33:31;99401.13;;;17.02;100.00
77299;BME280;66361;52.034;20.656;2023-08-31T16:37:34;99396.03;;;16.91;100.00
77299;BME280;66361;52.034;20.656;2023-08-31T16:41:38;99398.34;;;16.68;100.00
77299;BME280;66361;52.034;20.656;2023-08-31T16:45:44;99407.75;;;16.45;100.00
77299;BME280;66361;52.034;20.656;2023-08-31T16:49:47;99412.66;;;16.22;100.00
77299;BME280;66361;52.034;20.656;2023-08-31T16:53:51;99411.66;;;16.06;100.00
77299;BME280;66361;52.034;20.656;2023-08-31T16:57:55;99418.59;;;15.89;100.00
77299;BME280;66361;52.034;20.656;2023-08-31T17:02:00;99415.22;;;15.69;100.00
77299;BME280;66361;52.034;20.656;2023-08-31T17:06:03;99416.13;;;15.50;100.00
77299;BME280;66361;52.034;20.656;2023-08-31T17:10:07;99416.44;;;15.38;100.00
77299;BME280;66361;52.034;20.656;2023-08-31T17:14:10;99416.88;;;15.24;100.00
77299;BME280;66361;52.034;20.656;2023-08-31T17:18:17;99419.56;;;15.04;100.00
77299;BME280;66361;52.034;20.656;2023-08-31T17:22:21;99415.78;;;14.88;100.00
77299;BME280;66361;52.034;20.656;2023-08-31T17:26:26;99424.47;;;14.71;100.00
77299;BME280;66361;52.034;20.656;2023-08-31T17:30:29;99428.81;;;14.52;100.00
77299;BME280;66361;52.034;20.656;2023-08-31T17:34:33;99436.75;;;14.33;100.00
77299;BME280;66361;52.034;20.656;2023-08-31T17:38:37;99446.94;;;14.19;100.00
77299;BME280;66361;52.034;20.656;2023-08-31T17:42:43;99449.09;;;14.04;100.00
77299;BME280;66361;52.034;20.656;2023-08-31T17:46:46;99453.09;;;13.89;100.00
77299;BME280;66361;52.034;20.656;2023-08-31T17:50:50;99461.13;;;13.78;100.00
77299;BME280;66361;52.034;20.656;2023-08-31T17:54:53;99468.47;;;13.65;100.00
77299;BME280;66361;52.034;20.656;2023-08-31T17:58:56;99475.22;;;13.48;100.00
77299;BME280;66361;52.034;20.656;2023-08-31T18:03:00;99484.91;;;13.38;100.00
77299;BME280;66361;52.034;20.656;2023-08-31T18:07:07;99489.19;;;13.29;100.00
77299;BME280;66361;52.034;20.656;2023-08-31T18:11:10;99498.88;;;13.19;100.00
77299;BME280;66361;52.034;20.656;2023-08-31T18:15:14;99491.81;;;13.08;100.00
77299;BME280;66361;52.034;20.656;2023-08-31T18:19:18;99481.19;;;12.99;100.00
77299;BME280;66361;52.034;20.656;2023-08-31T18:23:27;99495.63;;;12.95;100.00
77299;BME280;66361;52.034;20.656;2023-08-31T18:27:30;99497.13;;;12.88;100.00
77299;BME280;66361;52.034;20.656;2023-08-31T18:31:33;99505.53;;;12.82;100.00
77299;BME280;66361;52.034;20.656;2023-08-31T18:35:36;99509.03;;;12.82;100.00
77299;BME280;66361;52.034;20.656;2023-08-31T18:39:41;99509.03;;;12.82;100.00
77299;BME280;66361;52.034;20.656;2023-08-31T18:43:44;99506.38;;;12.82;100.00
77299;BME280;66361;52.034;20.656;2023-08-31T18:47:48;99497.38;;;12.74;100.00
77299;BME280;66361;52.034;20.656;2023-08-31T18:51:51;99498.72;;;12.68;100.00
77299;BME280;66361;52.034;20.656;2023-08-31T18:55:57;99505.84;;;12.56;100.00
77299;BME280;66361;52.034;20.656;2023-08-31T19:00:02;99502.13;;;12.48;100.00
77299;BME280;66361;52.034;20.656;2023-08-31T19:04:06;99505.16;;;12.43;100.00
77299;BME280;66361;52.034;20.656;2023-08-31T19:08:09;99505.03;;;12.34;100.00
77299;BME280;66361;52.034;20.656;2023-08-31T19:12:14;99504.13;;;12.24;100.00
77299;BME280;66361;52.034;20.656;2023-08-31T19:16:18;99497.38;;;12.20;100.00
77299;BME280;66361;52.034;20.656;2023-08-31T19:20:21;99500.13;;;12.18;100.00
77299;BME280;66361;52.034;20.656;2023-08-31T19:24:25;99507.72;;;12.11;100.00
77299;BME280;66361;52.034;20.656;2023-08-31T19:28:29;99510.97;;;11.93;100.00
77299;BME280;66361;52.034;20.656;2023-08-31T19:32:33;99513.88;;;11.90;100.00
77299;BME280;66361;52.034;20.656;2023-08-31T19:36:37;99526.13;;;11.80;100.00
77299;BME280;66361;52.034;20.656;2023-08-31T19:40:40;99524.19;;;11.82;100.00
77299;BME280;66361;52.034;20.656;2023-08-31T19:44:45;99523.69;;;11.77;100.00
77299;BME280;66361;52.034;20.656;2023-08-31T19:48:48;99527.44;;;11.74;100.00
77299;BME280;66361;52.034;20.656;2023-08-31T19:52:51;99531.00;;;11.62;100.00
77299;BME280;66361;52.034;20.656;2023-08-31T19:56:54;99540.72;;;11.50;100.00
77299;BME280;66361;52.034;20.656;2023-08-31T20:00:58;99541.81;;;11.48;100.00
77299;BME280;66361;52.034;20.656;2023-08-31T20:05:02;99552.34;;;11.37;100.00
77299;BME280;66361;52.034;20.656;2023-08-31T20:09:05;99554.28;;;11.35;100.00
77299;BME280;66361;52.034;20.656;2023-08-31T20:13:11;99565.41;;;11.27;100.00
77299;BME280;66361;52.034;20.656;2023-08-31T20:17:16;99561.53;;;11.20;100.00
77299;BME280;66361;52.034;20.656;2023-08-31T20:21:20;99564.69;;;11.12;100.00
77299;BME280;66361;52.034;20.656;2023-08-31T20:25:23;99566.25;;;11.04;100.00
77299;BME280;66361;52.034;20.656;2023-08-31T20:29:27;99571.53;;;11.04;100.00
77299;BME280;66361;52.034;20.656;2023-08-31T20:33:32;99567.44;;;11.00;100.00
77299;BME280;66361;52.034;20.656;2023-08-31T20:37:36;99568.59;;;10.96;100.00
77299;BME280;66361;52.034;20.656;2023-08-31T20:41:39;99564.41;;;10.93;100.00
77299;BME280;66361;52.034;20.656;2023-08-31T20:45:42;99567.59;;;10.86;100.00
77299;BME280;66361;52.034;20.656;2023-08-31T20:49:46;99562.09;;;10.89;100.00
77299;BME280;66361;52.034;20.656;2023-08-31T20:53:49;99560.41;;;10.88;100.00
77299;BME280;66361;52.034;20.656;2023-08-31T20:57:52;99573.53;;;10.77;100.00
77299;BME280;66361;52.034;20.656;2023-08-31T21:01:56;99575.34;;;10.76;100.00
77299;BME280;66361;52.034;20.656;2023-08-31T21:06:01;99575.09;;;10.79;100.00
77299;BME280;66361;52.034;20.656;2023-08-31T21:10:07;99578.31;;;10.71;100.00
77299;BME280;66361;52.034;20.656;2023-08-31T21:14:11;99578.03;;;10.63;100.00
77299;BME280;66361;52.034;20.656;2023-08-31T21:18:15;99579.84;;;10.63;100.00
77299;BME280;66361;52.034;20.656;2023-08-31T21:22:19;99588.47;;;10.65;100.00
77299;BME280;66361;52.034;20.656;2023-08-31T21:26:22;99588.91;;;10.59;100.00
77299;BME280;66361;52.034;20.656;2023-08-31T21:30:24;99602.44;;;10.54;100.00
77299;BME280;66361;52.034;20.656;2023-08-31T21:34:28;99596.00;;;10.58;100.00
77299;BME280;66361;52.034;20.656;2023-08-31T21:38:33;99599.34;;;10.60;100.00
77299;BME280;66361;52.034;20.656;2023-08-31T21:42:36;99601.25;;;10.58;100.00
77299;BME280;66361;52.034;20.656;2023-08-31T21:46:39;99608.44;;;10.56;100.00
77299;BME280;66361;52.034;20.656;2023-08-31T21:50:42;99609.59;;;10.52;100.00
77299;BME280;66361;52.034;20.656;2023-08-31T21:54:49;99607.94;;;10.51;100.00
77299;BME280;66361;52.034;20.656;2023-08-31T21:58:52;99609.19;;;10.46;100.00
77299;BME280;66361;52.034;20.656;2023-08-31T22:02:55;99615.41;;;10.45;100.00
77299;BME280;66361;52.034;20.656;2023-08-31T22:06:58;99614.91;;;10.40;100.00
77299;BME280;66361;52.034;20.656;2023-08-31T22:11:07;99619.56;;;10.36;100.00
77299;BME280;66361;52.034;20.656;2023-08-31T22:15:14;99627.16;;;10.28;100.00
77299;BME280;66361;52.034;20.656;2023-08-31T22:19:18;99617.78;;;10.24;100.00
77299;BME280;66361;52.034;20.656;2023-08-31T22:23:21;99631.59;;;10.28;100.00
77299;BME280;66361;52.034;20.656;2023-08-31T22:27:26;99624.53;;;10.28;100.00
77299;BME280;66361;52.034;20.656;2023-08-31T22:31:30;99631.50;;;10.29;100.00
77299;BME280;66361;52.034;20.656;2023-08-31T22:35:33;99629.81;;;10.28;100.00
77299;BME280;66361;52.034;20.656;2023-08-31T22:39:36;99632.97;;;10.20;100.00
77299;BME280;66361;52.034;20.656;2023-08-31T22:43:40;99625.69;;;10.11;100.00
77299;BME280;66361;52.034;20.656;2023-08-31T22:47:43;99627.81;;;10.06;100.00
77299;BME280;66361;52.034;20.656;2023-08-31T22:51:46;99631.19;;;10.08;100.00
77299;BME280;66361;52.034;20.656;2023-08-31T22:55:49;99627.38;;;10.00;100.00
77299;BME280;66361;52.034;20.656;2023-08-31T22:59:53;99629.72;;;9.92;100.00
77299;BME280;66361;52.034;20.656;2023-08-31T23:03:56;99633.59;;;9.86;100.00
77299;BME280;66361;52.034;20.656;2023-08-31T23:07:59;99632.03;;;9.84;100.00
77299;BME280;66361;52.034;20.656;2023-08-31T23:12:03;99637.91;;;9.74;100.00
77299;BME280;66361;52.034;20.656;2023-08-31T23:16:07;99635.50;;;9.71;100.00
77299;BME280;66361;52.034;20.656;2023-08-31T23:20:11;99636.75;;;9.66;100.00
77299;BME280;66361;52.034;20.656;2023-08-31T23:24:14;99629.25;;;9.60;100.00
77299;BME280;66361;52.034;20.656;2023-08-31T23:28:18;99632.09;;;9.57;100.00
